Time;durP1;ratioP1;P1;durP2;ratioP2;P2;SDS_P1;SDS_P2;PMS_P1;PMS_P2;Temp;Humidity;BMP_temperature;BMP_pressure;BME280_temperature;BME280_humidity;BME280_pressure;Samples;Min_cycle;Max_cycle;Signal;HPM_P1;HPM_P2
2021/09/14 00:00:16;;;;;;;27.70;22.60;;;;;;;14.84;88.92;99166.30;111208;1204;65023;-82
2021/09/14 00:03:03;;;;;;;28.40;24.20;;;;;;;14.88;88.93;99168.53;111240;1204;61906;-82
2021/09/14 00:05:30;;;;;;;29.80;26.60;;;;;;;14.90;89.26;99167.60;111235;1196;61903;-82
2021/09/14 00:07:57;;;;;;;28.90;25.70;;;;;;;14.95;89.54;99167.52;111246;1203;66940;-82
2021/09/14 00:10:25;;;;;;;32.50;26.40;;;;;;;15.03;89.60;99162.98;111263;1204;61858;-82
2021/09/14 00:12:52;;;;;;;27.90;23.80;;;;;;;15.08;89.49;99162.96;111202;1204;64094;-82
2021/09/14 00:15:19;;;;;;;27.00;23.80;;;;;;;15.11;89.58;99159.58;111232;1196;61883;-82
2021/09/14 00:17:46;;;;;;;30.60;27.20;;;;;;;15.15;89.63;99158.63;111196;1200;61822;-82
2021/09/14 00:20:13;;;;;;;28.30;25.30;;;;;;;15.19;89.76;99157.54;111207;1204;66845;-83
2021/09/14 00:22:39;;;;;;;29.40;26.20;;;;;;;15.22;89.89;99156.02;111227;1204;61806;-82
2021/09/14 00:25:06;;;;;;;30.50;27.20;;;;;;;15.24;89.95;99157.98;111267;1204;63961;-82
2021/09/14 00:27:33;;;;;;;30.90;27.40;;;;;;;15.27;89.91;99158.27;111274;1204;61908;-82
2021/09/14 00:29:59;;;;;;;30.10;26.90;;;;;;;15.32;90.11;99162.18;111226;1196;61914;-82
2021/09/14 00:32:26;;;;;;;29.00;25.90;;;;;;;15.35;90.05;99161.34;111259;1204;67793;-81
2021/09/14 00:34:53;;;;;;;29.00;26.00;;;;;;;15.40;90.09;99161.52;111263;1204;61887;-82
2021/09/14 00:37:19;;;;;;;28.60;25.80;;;;;;;15.40;90.24;99161.15;111273;1204;63959;-82
2021/09/14 00:39:46;;;;;;;29.40;26.30;;;;;;;15.46;90.28;99163.52;111258;1204;61908;-82
2021/09/14 00:42:13;;;;;;;29.30;26.20;;;;;;;15.50;90.03;99160.31;111229;1196;61988;-82
2021/09/14 00:44:39;;;;;;;28.10;25.30;;;;;;;15.48;89.96;99155.79;111263;1202;67851;-81
2021/09/14 00:47:06;;;;;;;29.60;26.40;;;;;;;15.47;89.92;99153.55;111239;1204;61803;-83
2021/09/14 00:49:32;;;;;;;32.40;28.30;;;;;;;15.53;90.12;99151.63;111239;1204;62331;-83
2021/09/14 00:52:00;;;;;;;28.60;25.70;;;;;;;15.57;90.01;99152.20;111223;1204;61813;-83
2021/09/14 00:54:27;;;;;;;28.20;25.20;;;;;;;15.61;89.94;99146.68;111222;1204;61864;-82
2021/09/14 00:56:56;;;;;;;27.90;25.00;;;;;;;15.62;89.86;99145.17;111223;1204;67499;-84
2021/09/14 00:59:24;;;;;;;30.50;26.60;;;;;;;15.62;89.98;99146.73;111390;1204;61809;-84
2021/09/14 01:01:54;;;;;;;29.80;26.70;;;;;;;15.61;89.94;99147.16;111241;1204;65021;-83
2021/09/14 01:04:21;;;;;;;33.40;27.20;;;;;;;15.58;89.90;99141.83;111255;1204;63003;-85
2021/09/14 01:06:48;;;;;;;28.70;25.80;;;;;;;15.56;89.92;99138.13;111326;1197;61734;-83
2021/09/14 01:09:15;;;;;;;30.20;27.20;;;;;;;15.51;89.93;99136.20;111262;1204;65436;-81
2021/09/14 01:11:42;;;;;;;33.90;29.50;;;;;;;15.47;89.89;99135.33;111193;1204;61850;-84
2021/09/14 01:14:10;;;;;;;32.20;28.60;;;;;;;15.42;90.08;99135.52;111237;1204;62598;-84
2021/09/14 01:16:39;;;;;;;35.00;31.30;;;;;;;15.41;90.24;99139.97;111256;1204;61890;-83
2021/09/14 01:19:08;;;;;;;38.90;31.60;;;;;;;15.36;90.28;99146.27;111262;1197;61845;-83
2021/09/14 01:21:34;;;;;;;33.70;29.60;;;;;;;15.30;90.48;99146.09;111197;1204;66516;-83
2021/09/14 01:24:02;;;;;;;33.40;29.80;;;;;;;15.27;90.80;99141.67;111209;1196;61806;-83
2021/09/14 01:26:30;;;;;;;32.30;28.80;;;;;;;15.24;90.91;99144.20;111198;1204;65290;-83
2021/09/14 01:28:56;;;;;;;30.90;27.60;;;;;;;15.25;90.94;99140.58;111228;1204;61837;-83
2021/09/14 01:31:23;;;;;;;32.60;27.80;;;;;;;15.27;91.05;99144.20;111260;1204;61885;-83
2021/09/14 01:33:51;;;;;;;30.50;26.10;;;;;;;15.26;91.12;99139.92;111189;1204;67746;-82
2021/09/14 01:36:19;;;;;;;30.80;27.40;;;;;;;15.28;91.11;99139.96;111240;1204;61903;-82
2021/09/14 01:38:46;;;;;;;34.00;28.70;;;;;;;15.30;91.23;99135.84;111229;1204;65016;-82
2021/09/14 01:41:13;;;;;;;31.10;27.80;;;;;;;15.28;91.13;99136.15;111238;1204;61883;-81
2021/09/14 01:43:40;;;;;;;33.00;29.60;;;;;;;15.24;91.10;99137.92;111250;1196;61879;-82
2021/09/14 01:46:08;;;;;;;32.40;28.60;;;;;;;15.24;91.34;99143.17;111256;1204;66439;-82
2021/09/14 01:48:35;;;;;;;30.30;27.20;;;;;;;15.23;91.50;99145.02;111237;1204;61875;-82
2021/09/14 01:51:03;;;;;;;30.40;27.20;;;;;;;15.24;91.55;99145.50;111268;1203;63957;-82
2021/09/14 01:53:30;;;;;;;32.40;28.90;;;;;;;15.27;91.66;99147.39;111225;1204;61873;-82
2021/09/14 01:56:02;;;;;;;31.40;27.40;;;;;;;15.30;91.85;99145.36;111211;1204;61793;-82
2021/09/14 01:58:29;;;;;;;29.80;25.50;;;;;;;15.29;91.69;99146.11;111235;1204;66541;-82
2021/09/14 02:01:02;;;;;;;31.50;28.10;;;;;;;15.26;91.45;99147.77;111252;1204;61965;-82
2021/09/14 02:03:49;;;;;;;31.50;28.20;;;;;;;15.23;91.29;99147.57;111205;1204;63972;-82
2021/09/14 02:09:11;;;;;;;31.60;28.20;;;;;;;15.13;91.33;99155.30;111219;1196;61893;-82
2021/09/14 02:38:16;;;;;;;30.90;27.00;;;;;;;14.55;92.21;99154.91;111263;1204;62209;-81
2021/09/14 02:58:57;;;;;;;27.70;24.90;;;;;;;14.03;92.74;99166.88;111169;1204;63959;-81
2021/09/14 03:01:23;;;;;;;28.00;25.10;;;;;;;13.99;92.81;99167.02;111233;1204;62021;-82
2021/09/14 03:03:52;;;;;;;29.30;23.80;;;;;;;13.98;92.80;99168.18;111218;1197;61883;-82
2021/09/14 03:06:19;;;;;;;24.00;20.70;;;;;;;13.94;92.54;99173.29;111191;1203;67018;-81
2021/09/14 03:08:49;;;;;;;23.60;21.10;;;;;;;13.92;92.55;99175.07;111219;1204;61880;-81
2021/09/14 03:11:17;;;;;;;;;;;;;;;13.88;92.43;99171.83;111218;1196;64039;-81
2021/09/14 03:13:44;;;;;;;30.00;25.50;;;;;;;13.81;92.56;99170.16;111225;1204;61903;-81
2021/09/14 03:16:12;;;;;;;27.60;22.90;;;;;;;13.83;93.10;99170.59;111276;1203;61912;-82
2021/09/14 03:18:40;;;;;;;27.50;23.70;;;;;;;13.89;93.01;99171.58;111303;1204;65266;-81
2021/09/14 03:21:10;;;;;;;27.30;24.40;;;;;;;13.92;92.88;99169.20;111206;1203;61818;-81
2021/09/14 03:23:37;;;;;;;28.80;25.70;;;;;;;13.90;92.77;99169.20;111170;1204;64088;-82
2021/09/14 03:26:03;;;;;;;28.40;25.50;;;;;;;13.85;92.81;99169.91;111166;1204;61864;-82
2021/09/14 03:28:30;;;;;;;27.80;24.90;;;;;;;13.79;93.13;99168.03;111140;1204;61886;-82
2021/09/14 03:30:57;;;;;;;27.50;23.90;;;;;;;13.75;92.81;99169.27;111214;1203;67716;-82
2021/09/14 03:33:24;;;;;;;25.00;22.30;;;;;;;13.68;92.65;99170.35;111237;1204;61896;-82
2021/09/14 03:35:51;;;;;;;28.00;24.90;;;;;;;13.60;92.55;99161.23;111215;1204;65007;-82
2021/09/14 03:38:18;;;;;;;26.80;24.00;;;;;;;13.57;92.63;99160.63;111219;1198;61825;-82
2021/09/14 03:40:45;;;;;;;26.90;23.00;;;;;;;13.51;92.41;99159.86;111201;1204;61890;-81
2021/09/14 03:43:15;;;;;;;25.20;22.60;;;;;;;13.46;92.47;99160.91;111187;1204;66926;-81
2021/09/14 03:45:46;;;;;;;;;;;;;;;13.43;92.43;99158.83;111249;1204;61845;-82
2021/09/14 03:48:14;;;;;;;24.00;20.90;;;;;;;13.39;92.28;99160.23;111212;1196;64702;-81
2021/09/14 03:50:41;;;;;;;18.10;16.20;;;;;;;13.32;92.12;99161.96;111225;1204;61784;-82
2021/09/14 03:53:08;;;;;;;19.90;17.80;;;;;;;13.25;91.83;99157.87;111255;1204;61871;-81
2021/09/14 03:55:35;;;;;;;26.50;22.20;;;;;;;13.18;91.94;99160.34;111264;1204;65428;-84
2021/09/14 03:58:02;;;;;;;23.60;20.20;;;;;;;13.13;92.14;99158.74;111268;1204;61861;-81
2021/09/14 04:00:28;;;;;;;23.30;20.10;;;;;;;13.09;92.11;99159.03;111207;1203;62325;-81
2021/09/14 04:02:59;;;;;;;37.40;29.80;;;;;;;13.07;92.40;99161.81;111231;1204;61838;-81
2021/09/14 04:10:37;;;;;;;33.00;27.10;;;;;;;13.04;92.72;99164.22;111331;1204;61891;-83
2021/09/14 04:13:04;;;;;;;44.60;37.10;;;;;;;13.05;92.92;99162.23;111278;1204;63980;-82
2021/09/14 04:15:31;;;;;;;34.50;28.80;;;;;;;13.08;93.22;99164.12;111269;1197;61876;-84
2021/09/14 04:17:58;;;;;;;28.80;24.70;;;;;;;13.10;92.93;99161.24;111266;1204;61889;-82
2021/09/14 04:20:25;;;;;;;33.00;26.40;;;;;;;13.10;92.80;99163.23;111234;1204;66647;-83
2021/09/14 04:22:51;;;;;;;33.70;26.50;;;;;;;13.07;92.58;99169.73;111187;1204;61806;-85
2021/09/14 04:25:18;;;;;;;36.40;29.10;;;;;;;13.07;92.96;99171.14;111176;1204;64051;-83
2021/09/14 04:27:45;;;;;;;32.80;27.10;;;;;;;13.12;93.05;99172.58;111247;1204;61892;-83
2021/09/14 04:30:12;;;;;;;30.00;24.90;;;;;;;13.10;92.39;99172.89;111173;1196;61883;-82
2021/09/14 04:32:39;;;;;;;24.20;20.90;;;;;;;13.05;92.02;99173.43;111170;1204;65251;-82
2021/09/14 04:35:05;;;;;;;20.00;17.40;;;;;;;12.98;91.66;99175.16;111184;1204;62026;-83
2021/09/14 04:37:32;;;;;;;19.70;17.00;;;;;;;12.92;91.62;99175.46;111162;1204;63951;-83
2021/09/14 04:39:59;;;;;;;20.20;18.10;;;;;;;12.86;91.30;99177.38;111193;1196;61921;-81
2021/09/14 04:42:25;;;;;;;22.00;19.70;;;;;;;12.79;91.20;99178.60;111196;1195;61867;-81
2021/09/14 04:44:53;;;;;;;34.80;25.70;;;;;;;12.75;91.47;99181.34;111223;1204;65269;-81
2021/09/14 04:47:20;;;;;;;32.00;25.00;;;;;;;12.71;91.49;99178.91;111229;1204;61842;-82
2021/09/14 04:49:47;;;;;;;30.30;27.00;;;;;;;12.67;91.63;99181.20;111241;1204;63701;-82
2021/09/14 04:52:14;;;;;;;30.40;26.60;;;;;;;12.67;91.85;99184.77;111214;1204;61880;-81
2021/09/14 04:54:40;;;;;;;32.10;26.00;;;;;;;12.72;92.23;99187.28;111238;1204;61873;-81
2021/09/14 04:57:07;;;;;;;28.60;25.50;;;;;;;12.85;92.43;99188.42;111202;1204;66733;-82
2021/09/14 04:59:34;;;;;;;29.50;25.20;;;;;;;12.97;92.18;99187.79;111144;1204;61918;-82
2021/09/14 05:02:01;;;;;;;31.30;24.50;;;;;;;13.00;92.01;99190.55;111169;1199;62783;-82
2021/09/14 05:04:27;;;;;;;28.50;24.60;;;;;;;13.03;91.97;99193.78;111207;1204;61971;-82
2021/09/14 05:06:54;;;;;;;47.70;28.80;;;;;;;13.10;92.24;99196.27;111290;1204;61863;-81
2021/09/14 05:09:21;;;;;;;46.80;28.40;;;;;;;13.22;92.54;99198.02;111252;1204;66904;-82
2021/09/14 05:11:47;;;;;;;54.40;25.50;;;;;;;13.37;92.59;99197.10;111231;1197;61886;-83
2021/09/14 05:14:14;;;;;;;49.80;24.60;;;;;;;13.49;92.72;99198.55;111236;1204;63874;-83
2021/09/14 05:16:41;;;;;;;37.70;24.30;;;;;;;13.58;92.82;99195.32;111220;1204;61980;-83
2021/09/14 05:19:09;;;;;;;34.10;24.20;;;;;;;13.72;92.90;99197.67;111216;1203;61889;-83
2021/09/14 05:21:45;;;;;;;33.60;24.70;;;;;;;13.92;92.87;99195.77;111256;1204;66791;-83
2021/09/14 05:24:12;;;;;;;44.50;24.50;;;;;;;14.09;92.61;99196.73;111231;1204;61812;-81
2021/09/14 05:26:40;;;;;;;62.20;27.30;;;;;;;14.18;92.45;99198.20;111286;1204;62693;-83
2021/09/14 05:29:07;;;;;;;83.50;27.50;;;;;;;14.25;92.32;99200.35;111288;1197;61886;-83
2021/09/14 05:31:35;;;;;;;60.70;26.50;;;;;;;14.33;92.34;99200.83;111245;1204;61919;-83
2021/09/14 05:34:01;;;;;;;44.20;25.70;;;;;;;14.42;92.33;99202.79;111240;1204;67634;-83
2021/09/14 05:36:28;;;;;;;54.10;24.80;;;;;;;14.50;92.37;99203.23;111211;1204;61897;-83
2021/09/14 05:38:55;;;;;;;52.20;24.60;;;;;;;14.61;92.39;99203.94;111214;1204;63646;-83
2021/09/14 05:41:21;;;;;;;51.10;25.30;;;;;;;14.77;92.16;99204.67;111233;1204;61872;-83
2021/09/14 05:43:50;;;;;;;47.20;26.60;;;;;;;14.92;92.18;99199.45;111240;1197;61928;-83
2021/09/14 05:46:16;;;;;;;31.90;25.60;;;;;;;15.13;92.29;99195.39;111237;1204;66537;-83
2021/09/14 05:48:43;;;;;;;32.00;25.10;;;;;;;15.35;92.03;99197.23;111219;1204;61765;-81
2021/09/14 05:51:10;;;;;;;32.60;25.60;;;;;;;15.50;91.76;99195.41;111228;1204;63973;-83
2021/09/14 05:53:37;;;;;;;33.90;26.40;;;;;;;15.65;91.45;99199.17;111200;1204;61935;-83
2021/09/14 05:56:04;;;;;;;41.50;27.50;;;;;;;15.79;91.13;99202.52;111207;1204;61864;-83
2021/09/14 05:58:31;;;;;;;39.80;27.00;;;;;;;15.96;90.80;99199.93;111241;1204;66801;-83
2021/09/14 06:00:58;;;;;;;38.70;28.00;;;;;;;16.12;90.24;99201.61;111261;1204;68873;-82
2021/09/14 06:03:26;;;;;;;30.20;26.90;;;;;;;16.25;89.84;99200.46;111208;1204;65007;-82
2021/09/14 06:05:52;;;;;;;31.70;27.80;;;;;;;16.35;89.40;99198.16;111266;1204;61868;-82
2021/09/14 06:08:19;;;;;;;32.70;26.50;;;;;;;16.50;88.94;99198.86;111214;1197;61929;-82
2021/09/14 06:10:46;;;;;;;31.30;25.70;;;;;;;16.66;88.47;99196.30;111245;1204;66603;-83
2021/09/14 06:13:12;;;;;;;30.10;26.90;;;;;;;16.78;88.24;99202.52;111252;1204;61761;-82
2021/09/14 06:15:40;;;;;;;31.20;28.00;;;;;;;16.89;88.10;99200.20;111240;1197;63974;-82
2021/09/14 06:18:06;;;;;;;29.10;26.00;;;;;;;17.04;88.00;99201.03;111234;1203;61900;-82
2021/09/14 06:20:33;;;;;;;29.10;26.10;;;;;;;17.16;87.93;99201.35;111202;1204;61905;-82
2021/09/14 06:23:00;;;;;;;28.00;25.10;;;;;;;17.25;87.89;99203.27;111244;1203;67566;-82
2021/09/14 06:25:27;;;;;;;27.80;25.00;;;;;;;17.35;87.95;99201.77;111182;1204;61902;-82
2021/09/14 06:27:54;;;;;;;28.10;25.30;;;;;;;17.48;87.97;99202.38;111157;1197;64004;-82
2021/09/14 06:30:20;;;;;;;29.80;26.60;;;;;;;17.66;87.69;99200.59;111200;1204;61989;-81
2021/09/14 06:32:47;;;;;;;29.10;26.00;;;;;;;17.79;87.33;99202.98;111189;1204;61806;-81
2021/09/14 06:35:14;;;;;;;30.00;27.10;;;;;;;17.84;86.82;99204.47;111211;1204;67780;-81
2021/09/14 06:37:41;;;;;;;29.20;26.40;;;;;;;17.80;86.71;99201.97;111261;1204;61892;-81
2021/09/14 06:40:08;;;;;;;30.40;25.60;;;;;;;17.82;87.01;99202.67;111231;1203;63929;-82
2021/09/14 06:42:35;;;;;;;27.70;24.80;;;;;;;17.93;86.99;99201.45;111191;1196;61844;-81
2021/09/14 06:45:02;;;;;;;30.20;27.00;;;;;;;18.05;86.92;99202.73;111335;1195;61810;-93
2021/09/14 06:47:30;;;;;;;29.20;26.20;;;;;;;18.14;86.71;99200.04;111823;1197;66642;-91
2021/09/14 06:49:57;;;;;;;28.20;25.40;;;;;;;18.28;86.57;99201.02;111381;1198;61880;-91
2021/09/14 06:52:23;;;;;;;28.60;25.80;;;;;;;18.39;86.28;99205.39;111232;1204;64142;-93
2021/09/14 06:54:50;;;;;;;29.50;26.70;;;;;;;18.47;86.06;99203.73;111179;1198;61883;-87
2021/09/14 06:57:26;;;;;;;30.70;27.80;;;;;;;18.56;85.94;99203.05;111543;1204;61840;-93
2021/09/14 06:59:53;;;;;;;29.80;26.50;;;;;;;18.61;85.69;99203.09;111272;1204;66959;-81
2021/09/14 07:02:20;;;;;;;28.60;25.60;;;;;;;18.71;85.71;99202.47;111354;1204;61808;-81
2021/09/14 07:04:47;;;;;;;30.40;24.90;;;;;;;18.85;85.65;99200.27;111129;1204;63980;-81
2021/09/14 07:07:14;;;;;;;28.80;25.80;;;;;;;18.97;85.19;99198.39;111283;1204;62489;-81
2021/09/14 07:09:41;;;;;;;29.40;26.30;;;;;;;19.03;85.15;99198.29;111306;1203;61848;-81
2021/09/14 07:12:08;;;;;;;30.30;27.10;;;;;;;19.13;84.94;99200.22;111265;1203;66405;-81
2021/09/14 07:14:37;;;;;;;30.20;27.10;;;;;;;19.19;84.75;99201.91;111310;1203;70022;-81
2021/09/14 07:17:04;;;;;;;29.70;26.70;;;;;;;19.24;84.37;99199.94;111306;1203;63803;-81
2021/09/14 07:19:30;;;;;;;28.70;25.80;;;;;;;19.27;84.35;99199.88;111225;1198;61872;-81
2021/09/14 07:21:57;;;;;;;27.70;24.70;;;;;;;19.34;84.08;99201.55;111364;1204;61803;-80
2021/09/14 07:24:24;;;;;;;28.60;25.90;;;;;;;19.34;83.77;99202.60;111315;1204;66645;-84
2021/09/14 07:26:54;;;;;;;30.20;26.90;;;;;;;19.35;83.35;99201.83;111366;1204;61795;-82
2021/09/14 07:29:23;;;;;;;31.90;28.10;;;;;;;19.34;83.09;99207.67;111425;1203;64798;-83
2021/09/14 07:31:50;;;;;;;30.10;27.20;;;;;;;19.32;82.82;99210.15;111327;1203;61847;-81
2021/09/14 07:34:17;;;;;;;30.00;27.00;;;;;;;19.35;83.04;99207.17;111273;1200;62314;-83
2021/09/14 07:36:44;;;;;;;30.00;27.10;;;;;;;19.41;82.94;99208.19;111350;1204;65431;-84
2021/09/14 07:39:10;;;;;;;30.10;26.90;;;;;;;19.44;82.51;99204.64;111620;1204;61991;-83
2021/09/14 07:42:04;;;;;;;28.90;26.00;;;;;;;19.46;82.30;99204.79;112687;1204;63700;-93
2021/09/14 07:44:40;;;;;;;27.30;24.40;;;;;;;19.50;82.41;99205.13;113092;1196;61883;-94
2021/09/14 07:47:07;;;;;;;29.60;26.40;;;;;;;19.61;82.84;99208.77;111496;1195;61868;-93
2021/09/14 07:49:34;;;;;;;31.60;26.10;;;;;;;19.69;82.59;99204.67;111451;1204;66857;-91
2021/09/14 07:52:00;;;;;;;29.20;26.30;;;;;;;19.71;82.30;99201.55;111406;1204;61892;-88
2021/09/14 07:54:27;;;;;;;29.50;26.60;;;;;;;19.72;82.03;99202.17;111238;1203;63443;-89
2021/09/14 07:56:54;;;;;;;29.30;25.80;;;;;;;19.69;81.61;99201.42;111130;1204;61894;-89
2021/09/14 07:59:21;;;;;;;28.20;24.90;;;;;;;19.68;81.71;99200.25;111317;1195;61832;-87
2021/09/14 08:01:47;;;;;;;28.50;24.10;;;;;;;19.71;81.65;99206.39;111282;1204;66219;-89
2021/09/14 08:04:14;;;;;;;24.80;22.50;;;;;;;19.80;81.72;99207.89;111274;1204;61889;-86
2021/09/14 08:06:41;;;;;;;24.90;22.40;;;;;;;19.93;81.70;99206.34;111278;1203;63962;-88
2021/09/14 08:09:07;;;;;;;26.00;23.40;;;;;;;20.03;81.53;99207.15;111225;1204;61955;-89
2021/09/14 08:11:35;;;;;;;26.60;24.00;;;;;;;20.10;81.24;99204.06;111298;1202;62206;-88
2021/09/14 08:14:01;;;;;;;25.50;23.10;;;;;;;20.15;81.10;99203.77;111259;1203;67745;-88
2021/09/14 08:16:28;;;;;;;25.90;21.00;;;;;;;20.23;80.84;99202.39;111259;1203;61796;-88
2021/09/14 08:18:55;;;;;;;23.90;20.40;;;;;;;20.28;80.45;99204.00;111199;1200;63641;-89
2021/09/14 08:21:23;;;;;;;20.40;18.40;;;;;;;20.38;80.39;99205.89;111212;1197;61877;-88
2021/09/14 08:23:50;;;;;;;20.10;17.90;;;;;;;20.48;80.24;99204.12;111268;1203;61898;-86
2021/09/14 08:26:17;;;;;;;22.20;20.10;;;;;;;20.59;79.68;99206.98;111329;1204;66764;-87
2021/09/14 08:28:44;;;;;;;22.30;20.00;;;;;;;20.66;79.01;99205.35;111241;1204;61926;-87
2021/09/14 08:31:11;;;;;;;22.90;20.60;;;;;;;20.70;78.58;99208.19;111211;1199;63991;-88
2021/09/14 08:33:37;;;;;;;23.10;20.70;;;;;;;20.72;78.48;99209.05;111234;1198;61880;-87
2021/09/14 08:36:04;;;;;;;22.30;20.10;;;;;;;20.77;78.33;99211.17;111318;1200;61805;-87
2021/09/14 08:38:30;;;;;;;24.70;20.80;;;;;;;20.78;78.22;99207.98;111251;1198;66497;-87
2021/09/14 08:40:59;;;;;;;22.30;18.80;;;;;;;20.88;78.31;99210.43;111243;1200;61894;-84
2021/09/14 08:43:26;;;;;;;21.40;19.30;;;;;;;20.92;77.27;99209.09;111279;1198;63873;-87
2021/09/14 08:45:52;;;;;;;18.70;16.70;;;;;;;20.94;76.87;99209.08;111303;1204;61954;-87
2021/09/14 08:48:22;;;;;;;19.70;17.80;;;;;;;20.99;76.69;99214.27;111272;1205;61924;-87
2021/09/14 08:50:49;;;;;;;;;;;;;;;21.05;76.37;99207.48;111357;1204;66743;-87
2021/09/14 08:53:16;;;;;;;19.20;17.50;;;;;;;21.14;76.38;99205.06;111315;1204;61908;-87
2021/09/14 08:55:43;;;;;;;21.20;19.20;;;;;;;21.24;76.13;99207.45;111333;1203;63915;-94
2021/09/14 08:58:13;;;;;;;22.80;19.30;;;;;;;21.29;76.20;99207.85;111700;1198;62023;-94
2021/09/14 09:01:38;;;;;;;20.40;18.20;;;;;;;21.41;76.33;99207.45;112527;1203;61899;-93
2021/09/14 09:04:11;;;;;;;16.90;15.10;;;;;;;21.49;75.28;99206.23;112294;1203;67790;-95
2021/09/14 09:06:40;;;;;;;15.20;13.60;;;;;;;21.50;74.49;99207.30;112130;1198;61953;-94
2021/09/14 09:09:18;;;;;;;17.30;15.60;;;;;;;21.58;74.03;99207.23;112027;1204;62459;-93
2021/09/14 09:12:08;;;;;;;16.30;14.80;;;;;;;21.71;74.01;99210.34;111971;1199;61992;-94
2021/09/14 09:14:47;;;;;;;16.50;13.80;;;;;;;21.83;73.58;99209.88;111961;1204;62032;-94
2021/09/14 09:17:18;;;;;;;19.90;17.80;;;;;;;21.99;73.21;99212.68;111940;1205;66870;-95
2021/09/14 09:19:57;;;;;;;17.40;15.60;;;;;;;22.08;72.76;99211.98;112195;1204;61937;-93
2021/09/14 09:22:26;;;;;;;15.50;14.10;;;;;;;22.19;72.67;99212.55;112248;1204;64007;-95
2021/09/14 09:24:55;;;;;;;17.30;15.30;;;;;;;22.32;72.21;99213.90;111977;1206;61953;-95
2021/09/14 09:27:25;;;;;;;19.40;17.60;;;;;;;22.40;71.77;99213.02;111935;1205;61779;-93
2021/09/14 09:30:09;;;;;;;18.90;17.00;;;;;;;22.47;71.71;99210.73;112197;1202;65438;-94
2021/09/14 09:32:52;;;;;;;18.50;16.80;;;;;;;22.54;71.26;99212.07;112320;1196;61802;-92
2021/09/14 09:35:32;;;;;;;16.60;14.60;;;;;;;22.56;70.56;99209.28;112004;1205;62667;-93
2021/09/14 09:38:01;;;;;;;14.00;12.50;;;;;;;22.56;69.38;99212.95;112071;1197;61789;-94
2021/09/14 09:40:32;;;;;;;16.50;15.00;;;;;;;22.56;69.26;99209.45;111959;1198;61948;-92
2021/09/14 09:43:31;;;;;;;13.80;12.40;;;;;;;22.61;69.19;99210.42;112000;1200;66953;-93
2021/09/14 09:46:20;;;;;;;13.10;11.30;;;;;;;22.68;68.58;99205.30;112032;1204;61981;-93
2021/09/14 09:48:49;;;;;;;13.80;12.20;;;;;;;22.79;68.11;99204.21;112075;1200;62581;-93
2021/09/14 09:51:16;;;;;;;11.10;9.90;;;;;;;22.90;67.99;99201.08;111886;1197;61904;-94
2021/09/14 09:53:54;;;;;;;13.10;11.30;;;;;;;22.96;67.21;99201.13;111893;1203;61915;-93
2021/09/14 09:56:25;;;;;;;13.50;12.20;;;;;;;23.07;67.31;99201.45;112261;1204;66854;-93
2021/09/14 09:58:53;;;;;;;14.70;13.30;;;;;;;23.19;66.82;99198.81;112137;1203;61803;-92
2021/09/14 10:01:24;;;;;;;13.70;12.30;;;;;;;23.27;66.75;99194.52;112014;1205;64064;-93
2021/09/14 10:04:25;;;;;;;13.60;12.20;;;;;;;23.33;66.60;99191.84;112076;1197;61867;-92
2021/09/14 10:06:56;;;;;;;12.10;10.80;;;;;;;23.47;66.69;99195.27;111843;1200;61790;-93
2021/09/14 10:09:31;;;;;;;11.70;10.60;;;;;;;23.61;66.16;99193.27;112225;1203;66832;-96
2021/09/14 10:11:58;;;;;;;12.50;11.40;;;;;;;23.63;65.14;99191.48;112065;1198;61832;-93
2021/09/14 10:14:26;;;;;;;12.00;10.80;;;;;;;23.64;64.64;99190.87;111940;1205;64018;-95
2021/09/14 10:17:06;;;;;;;11.70;10.60;;;;;;;23.68;64.62;99190.14;112177;1203;61959;-94
2021/09/14 10:20:11;;;;;;;12.60;11.50;;;;;;;23.84;64.90;99187.25;112412;1204;62001;-94
2021/09/14 10:25:59;;;;;;;13.30;12.00;;;;;;;24.04;63.38;99184.45;112519;1204;61794;-93
2021/09/14 10:28:26;;;;;;;;;;;;;;;23.97;62.26;99180.61;112528;1203;63689;-93
2021/09/14 10:30:55;;;;;;;12.20;11.10;;;;;;;23.86;61.53;99178.70;113270;1200;61718;-93
2021/09/14 10:56:17;;;;;;;12.40;11.20;;;;;;;24.61;61.18;99173.94;112999;1201;63703;-94
2021/09/14 10:59:47;;;;;;;13.00;11.80;;;;;;;24.75;61.01;99171.55;113236;1201;61806;-95
2021/09/14 11:03:14;;;;;;;13.20;11.90;;;;;;;24.84;59.67;99169.67;113073;1196;61829;-95
2021/09/14 11:09:18;;;;;;;11.20;10.10;;;;;;;24.85;59.61;99174.12;112962;1203;61787;-94
2021/09/14 11:12:41;;;;;;;13.00;9.90;;;;;;;24.97;58.79;99172.73;113169;1196;63555;-95
2021/09/14 11:15:57;;;;;;;10.70;9.60;;;;;;;25.05;57.95;99167.95;113144;1195;61885;-94
2021/09/14 11:21:47;;;;;;;9.90;8.90;;;;;;;25.04;56.73;99168.98;112987;1200;66516;-94
2021/09/14 11:24:52;;;;;;;9.70;8.90;;;;;;;25.14;57.79;99165.14;113036;1202;61789;-95
2021/09/14 11:27:32;;;;;;;9.50;8.70;;;;;;;25.24;57.60;99161.75;113009;1203;64130;-95
2021/09/14 11:30:40;;;;;;;9.60;8.60;;;;;;;25.35;56.92;99158.67;113167;1202;60622;-96
2021/09/14 11:39:24;;;;;;;9.00;8.20;;;;;;;25.47;56.15;99158.88;113461;1195;61128;-96
2021/09/14 11:45:20;;;;;;;8.80;8.00;;;;;;;25.58;55.54;99153.95;113181;1203;61001;-92
2021/09/14 11:57:03;;;;;;;7.50;6.70;;;;;;;26.00;53.84;99145.00;113203;1195;65190;-95
2021/09/14 12:40:05;;;;;;;9.90;9.00;;;;;;;24.77;48.36;99136.50;113435;1195;64171;-94
2021/09/14 12:43:12;;;;;;;9.10;8.40;;;;;;;24.69;49.17;99135.76;113044;1198;61882;-94
2021/09/14 12:51:59;;;;;;;9.30;8.40;;;;;;;24.29;49.64;99123.80;109640;1199;61828;-96
2021/09/14 12:54:49;;;;;;;9.20;8.60;;;;;;;24.13;49.87;99124.57;113464;1195;63880;-95
2021/09/14 13:11:47;;;;;;;9.80;8.80;;;;;;;23.67;50.46;99115.90;113028;1203;61942;-92
2021/09/14 13:17:51;;;;;;;9.70;8.90;;;;;;;23.41;50.93;99112.48;113141;1200;67130;-93
2021/09/14 13:21:16;;;;;;;9.30;8.50;;;;;;;23.52;50.91;99111.23;112925;1204;61876;-93
2021/09/14 13:29:43;;;;;;;9.40;8.70;;;;;;;23.85;51.47;99106.54;113783;1195;60607;-93
2021/09/14 13:32:23;;;;;;;9.10;8.30;;;;;;;23.87;51.34;99106.41;113359;1199;65636;-94
2021/09/14 13:34:58;;;;;;;9.80;8.80;;;;;;;23.92;51.76;99106.99;113018;1198;60643;-92
2021/09/14 13:37:47;;;;;;;9.30;8.40;;;;;;;23.95;51.45;99108.09;112873;1202;65190;-94
2021/09/14 13:40:43;;;;;;;9.30;8.40;;;;;;;23.95;51.73;99107.50;113269;1202;61773;-94
2021/09/14 13:56:10;;;;;;;;;;;;;;;;;;;;;
2021/09/14 13:58:59;;;;;;;9.80;8.90;;;;;;;23.93;51.55;99092.56;114741;1200;59380;-94
2021/09/14 14:05:15;;;;;;;8.90;8.20;;;;;;;24.02;51.64;99088.71;112765;1200;61821;-96
2021/09/14 14:10:42;;;;;;;9.80;8.80;;;;;;;23.96;51.30;99085.78;112961;1204;61809;-95
2021/09/14 14:13:15;;;;;;;10.10;9.10;;;;;;;23.93;51.16;99086.22;112865;1203;61893;-94
2021/09/14 14:19:20;;;;;;;9.10;8.40;;;;;;;23.83;51.19;99078.97;113121;1196;61857;-93
